Time;durP1;ratioP1;P1;durP2;ratioP2;P2;SDS_P1;SDS_P2;PMS_P1;PMS_P2;Temp;Humidity;BMP_temperature;BMP_pressure;BME280_temperature;BME280_humidity;BME280_pressure;Samples;Min_cycle;Max_cycle;Signal;HPM_P1;HPM_P2
2023/08/30 00:01:08;;;;;;;2.10;1.90;;;14.80;99.90;;;;;;931506;150;27412;-76
2023/08/30 00:03:33;;;;;;;2.43;1.90;;;14.90;99.90;;;;;;931845;149;27455;-76
2023/08/30 00:06:02;;;;;;;2.80;2.00;;;14.80;99.90;;;;;;928816;149;28428;-76
2023/08/30 00:08:29;;;;;;;2.27;2.07;;;14.90;99.90;;;;;;928152;149;27494;-76
2023/08/30 00:10:58;;;;;;;2.23;2.03;;;14.90;99.90;;;;;;932135;149;27325;-76
2023/08/30 00:13:22;;;;;;;3.50;2.20;;;14.90;99.90;;;;;;930845;149;27445;-76
2023/08/30 00:15:49;;;;;;;2.25;2.02;;;14.90;99.90;;;;;;930870;149;27380;-76
2023/08/30 00:18:15;;;;;;;2.62;2.02;;;14.90;99.90;;;;;;930529;149;27357;-76
2023/08/30 00:20:42;;;;;;;2.05;1.95;;;14.90;99.90;;;;;;930899;149;27329;-76
2023/08/30 00:23:08;;;;;;;1.98;1.85;;;14.90;99.90;;;;;;931124;149;27446;-76
2023/08/30 00:25:35;;;;;;;1.97;1.87;;;14.90;99.90;;;;;;930115;149;27460;-76
2023/08/30 00:28:02;;;;;;;2.02;1.80;;;14.90;99.90;;;;;;930553;149;27767;-76
2023/08/30 00:30:28;;;;;;;1.97;1.83;;;14.90;99.90;;;;;;902259;154;27452;-76
2023/08/30 00:32:55;;;;;;;4.20;1.80;;;14.90;99.90;;;;;;929829;149;27370;-76
2023/08/30 00:35:21;;;;;;;2.67;1.60;;;14.90;99.90;;;;;;930676;149;27472;-76
2023/08/30 00:37:48;;;;;;;2.10;1.90;;;14.90;99.90;;;;;;930644;149;27321;-76
2023/08/30 00:40:14;;;;;;;2.10;1.90;;;14.90;99.90;;;;;;929964;149;27378;-76
2023/08/30 00:42:41;;;;;;;3.95;2.00;;;14.90;99.90;;;;;;929520;149;27348;-76
2023/08/30 00:45:08;;;;;;;2.10;2.00;;;14.90;99.90;;;;;;931026;149;27357;-76
2023/08/30 00:47:35;;;;;;;2.40;2.20;;;14.90;99.90;;;;;;929054;149;27446;-76
2023/08/30 00:50:01;;;;;;;2.25;2.12;;;14.90;99.90;;;;;;931147;149;27341;-76
2023/08/30 00:52:28;;;;;;;2.20;2.00;;;14.90;99.90;;;;;;932014;149;27300;-76
2023/08/30 00:54:54;;;;;;;2.98;2.35;;;14.90;99.90;;;;;;928859;149;27379;-76
2023/08/30 00:57:21;;;;;;;2.37;2.15;;;14.90;99.90;;;;;;929771;149;27372;-77
2023/08/30 00:59:47;;;;;;;2.23;2.13;;;14.90;99.90;;;;;;930619;149;27340;-76
2023/08/30 01:02:14;;;;;;;2.40;2.20;;;14.90;99.90;;;;;;930375;149;27360;-76
2023/08/30 01:04:40;;;;;;;2.50;2.30;;;14.90;99.90;;;;;;939997;151;27466;-76
2023/08/30 01:07:07;;;;;;;2.37;2.17;;;14.80;99.90;;;;;;945398;149;27365;-76
2023/08/30 01:09:34;;;;;;;2.63;2.43;;;14.80;99.90;;;;;;943184;148;27336;-76
2023/08/30 01:12:12;;;;;;;2.60;2.40;;;14.80;99.90;;;;;;944782;149;27402;-76
2023/08/30 01:14:44;;;;;;;2.60;2.40;;;14.80;99.90;;;;;;906587;151;27336;-76
2023/08/30 01:17:14;;;;;;;2.67;2.47;;;14.80;99.90;;;;;;944192;149;27389;-76
2023/08/30 01:19:46;;;;;;;3.33;2.72;;;14.80;99.90;;;;;;942797;149;27473;-76
2023/08/30 01:22:37;;;;;;;3.07;2.73;;;14.80;99.90;;;;;;943523;149;27344;-74
2023/08/30 01:25:32;;;;;;;3.70;2.87;;;14.80;99.90;;;;;;944362;148;27834;-74
2023/08/30 01:27:58;;;;;;;3.23;3.00;;;14.80;99.90;;;;;;942962;149;27390;-74
2023/08/30 01:30:26;;;;;;;2.90;2.70;;;14.80;99.90;;;;;;943784;149;28283;-74
2023/08/30 01:32:51;;;;;;;2.83;2.63;;;14.80;99.90;;;;;;942606;149;27467;-75
2023/08/30 01:35:19;;;;;;;3.00;2.77;;;14.80;99.90;;;;;;943905;149;27284;-74
2023/08/30 01:37:44;;;;;;;3.50;2.50;;;14.80;99.90;;;;;;943809;149;28019;-75
2023/08/30 01:40:11;;;;;;;4.08;2.75;;;14.80;99.90;;;;;;943133;149;27363;-74
2023/08/30 01:42:38;;;;;;;3.00;2.80;;;14.80;99.90;;;;;;944161;148;27326;-76
2023/08/30 01:45:04;;;;;;;3.60;3.30;;;14.80;99.90;;;;;;942990;149;27433;-74
2023/08/30 01:47:30;;;;;;;3.10;2.90;;;14.90;99.90;;;;;;943409;149;27686;-74
2023/08/30 01:49:57;;;;;;;3.58;3.27;;;14.80;99.90;;;;;;943511;149;27364;-75
2023/08/30 01:52:24;;;;;;;3.72;3.42;;;14.90;99.90;;;;;;928226;151;27920;-74
2023/08/30 01:54:50;;;;;;;10.48;4.47;;;14.90;99.90;;;;;;944229;149;27884;-74
2023/08/30 01:57:17;;;;;;;6.83;5.00;;;15.00;99.90;;;;;;942896;149;27371;-74
2023/08/30 01:59:43;;;;;;;5.08;4.58;;;15.00;99.90;;;;;;944853;148;27309;-76
2023/08/30 02:02:10;;;;;;;9.47;5.60;;;15.00;99.90;;;;;;944166;149;27375;-74
2023/08/30 02:04:37;;;;;;;10.38;5.47;;;15.00;99.90;;;;;;942859;149;28764;-75
2023/08/30 02:07:03;;;;;;;16.97;5.43;;;15.10;99.90;;;;;;944584;149;27453;-74
2023/08/30 02:09:39;;;;;;;13.18;5.90;;;15.10;99.90;;;;;;943966;149;27330;-75
2023/08/30 02:12:05;;;;;;;9.47;6.20;;;15.20;99.90;;;;;;921582;149;27381;-76
2023/08/30 02:14:32;;;;;;;7.25;5.67;;;15.20;99.90;;;;;;942798;149;27368;-74
2023/08/30 02:16:58;;;;;;;10.10;6.50;;;15.20;99.90;;;;;;943705;148;27870;-74
2023/08/30 02:19:25;;;;;;;14.20;7.20;;;15.20;99.90;;;;;;944129;149;27357;-74
2023/08/30 02:21:52;;;;;;;15.23;6.70;;;15.20;99.90;;;;;;930291;151;27366;-75
2023/08/30 02:24:18;;;;;;;10.03;7.00;;;15.20;99.90;;;;;;943034;149;27521;-74
2023/08/30 02:26:45;;;;;;;9.80;6.62;;;15.30;99.90;;;;;;943855;149;27389;-74
2023/08/30 02:29:13;;;;;;;11.95;6.78;;;15.30;99.90;;;;;;942886;149;27292;-74
2023/08/30 02:31:38;;;;;;;13.20;6.50;;;15.30;99.90;;;;;;944051;149;27410;-76
2023/08/30 02:34:05;;;;;;;7.65;6.85;;;15.30;99.90;;;;;;944864;148;27341;-76
2023/08/30 02:36:31;;;;;;;7.12;6.45;;;15.30;99.90;;;;;;944539;149;27373;-76
2023/08/30 02:38:58;;;;;;;10.30;6.53;;;15.40;99.90;;;;;;943195;149;27675;-76
2023/08/30 02:41:24;;;;;;;7.50;6.75;;;15.40;99.90;;;;;;944692;149;27379;-76
2023/08/30 02:43:51;;;;;;;7.60;6.60;;;15.40;99.90;;;;;;944539;149;27336;-76
2023/08/30 02:46:18;;;;;;;9.40;6.43;;;15.40;99.90;;;;;;943516;149;27353;-75
2023/08/30 02:48:44;;;;;;;6.70;6.00;;;15.50;99.90;;;;;;944765;148;27423;-76
2023/08/30 02:51:11;;;;;;;6.97;6.37;;;15.50;99.90;;;;;;925683;152;27289;-76
2023/08/30 02:53:37;;;;;;;10.88;7.65;;;15.50;99.90;;;;;;945681;149;27355;-76
2023/08/30 02:56:04;;;;;;;13.53;8.48;;;15.50;99.90;;;;;;943712;149;27392;-76
2023/08/30 02:58:30;;;;;;;13.75;8.70;;;15.60;99.90;;;;;;943020;149;27442;-76
2023/08/30 03:00:57;;;;;;;12.93;8.53;;;15.60;99.90;;;;;;943608;149;27324;-76
2023/08/30 03:03:24;;;;;;;10.03;9.03;;;15.60;99.90;;;;;;943977;149;27394;-76
2023/08/30 03:05:50;;;;;;;11.48;9.65;;;15.60;99.90;;;;;;943735;149;27342;-76
2023/08/30 03:08:17;;;;;;;9.40;8.48;;;15.70;99.90;;;;;;944265;148;27382;-76
2023/08/30 03:10:44;;;;;;;10.25;8.95;;;15.70;99.90;;;;;;943157;149;28418;-76
2023/08/30 03:13:10;;;;;;;9.88;8.88;;;15.70;99.90;;;;;;943371;149;27306;-76
2023/08/30 03:15:37;;;;;;;10.18;8.98;;;15.80;99.90;;;;;;944064;149;27345;-76
2023/08/30 03:18:03;;;;;;;10.85;9.05;;;15.80;99.90;;;;;;943875;149;27363;-76
2023/08/30 03:20:30;;;;;;;9.63;8.60;;;15.80;99.90;;;;;;942680;149;27521;-76
2023/08/30 03:22:57;;;;;;;10.68;9.25;;;15.80;99.90;;;;;;944012;148;27302;-76
2023/08/30 03:25:23;;;;;;;10.55;9.45;;;15.80;99.90;;;;;;944831;148;27375;-76
2023/08/30 03:27:50;;;;;;;9.90;9.00;;;15.80;99.90;;;;;;944973;149;27357;-76
2023/08/30 03:30:16;;;;;;;9.60;8.70;;;15.80;99.90;;;;;;943885;148;27360;-76
2023/08/30 03:32:43;;;;;;;10.65;9.50;;;15.80;99.90;;;;;;943285;149;27314;-76
2023/08/30 03:35:09;;;;;;;8.50;7.58;;;15.80;99.90;;;;;;943362;149;27734;-76
2023/08/30 03:37:36;;;;;;;7.97;7.28;;;15.80;99.90;;;;;;944331;149;27352;-76
2023/08/30 03:40:04;;;;;;;7.67;6.92;;;15.80;99.90;;;;;;944095;149;27425;-76
2023/08/30 03:42:29;;;;;;;9.03;7.67;;;15.80;99.90;;;;;;944492;149;27363;-75
2023/08/30 03:44:56;;;;;;;8.85;8.05;;;15.80;99.90;;;;;;943679;149;27386;-76
2023/08/30 03:47:22;;;;;;;8.57;7.80;;;15.80;99.90;;;;;;943486;149;27741;-76
2023/08/30 03:49:49;;;;;;;8.23;7.53;;;15.80;99.90;;;;;;943118;149;27293;-76
2023/08/30 03:52:15;;;;;;;9.00;8.20;;;15.80;99.90;;;;;;944128;149;27388;-76
2023/08/30 03:54:42;;;;;;;9.25;8.28;;;15.80;99.90;;;;;;944052;149;27461;-76
2023/08/30 03:57:09;;;;;;;8.60;7.83;;;15.80;99.90;;;;;;944592;149;27454;-76
2023/08/30 03:59:35;;;;;;;7.40;6.53;;;15.80;99.90;;;;;;944015;148;27394;-76
2023/08/30 04:02:02;;;;;;;8.40;7.53;;;15.80;99.90;;;;;;942990;149;27370;-76
2023/08/30 04:04:28;;;;;;;8.48;7.72;;;15.80;99.90;;;;;;945365;149;27445;-76
2023/08/30 04:06:55;;;;;;;8.18;7.37;;;15.80;99.90;;;;;;917786;152;28500;-76
2023/08/30 04:09:22;;;;;;;7.55;6.75;;;15.80;99.90;;;;;;914173;152;27820;-76
2023/08/30 04:11:48;;;;;;;7.80;7.00;;;15.70;99.90;;;;;;908684;153;27361;-76
2023/08/30 04:14:15;;;;;;;7.42;6.62;;;15.70;99.90;;;;;;931622;150;27447;-76
2023/08/30 04:16:41;;;;;;;6.97;6.37;;;15.70;99.90;;;;;;933066;150;27379;-76
2023/08/30 04:19:08;;;;;;;7.78;6.17;;;15.70;99.90;;;;;;930672;150;27446;-76
2023/08/30 04:21:35;;;;;;;6.72;6.12;;;15.70;99.90;;;;;;931075;150;27440;-76
2023/08/30 04:24:02;;;;;;;5.75;5.25;;;15.70;99.90;;;;;;932994;150;27347;-76
2023/08/30 04:26:28;;;;;;;5.90;5.40;;;15.70;99.90;;;;;;915004;152;27400;-76
2023/08/30 04:28:54;;;;;;;5.30;4.90;;;15.70;99.90;;;;;;931820;151;27432;-76
2023/08/30 04:31:21;;;;;;;5.43;4.93;;;15.70;99.90;;;;;;916251;152;27385;-76
2023/08/30 04:33:47;;;;;;;5.80;5.30;;;15.70;99.90;;;;;;914141;152;27407;-76
2023/08/30 04:36:14;;;;;;;5.10;4.70;;;15.70;99.90;;;;;;916873;152;27469;-76
2023/08/30 04:38:41;;;;;;;5.08;4.67;;;15.70;99.90;;;;;;907188;153;27392;-76
2023/08/30 04:41:07;;;;;;;4.42;4.03;;;15.70;99.90;;;;;;918099;152;27418;-76
2023/08/30 04:43:34;;;;;;;4.70;4.30;;;15.70;99.90;;;;;;930757;150;27428;-76
2023/08/30 04:46:00;;;;;;;4.67;4.28;;;15.80;99.90;;;;;;931151;150;27476;-76
2023/08/30 04:48:27;;;;;;;4.80;4.25;;;15.80;99.90;;;;;;932030;150;27443;-76
2023/08/30 04:50:59;;;;;;;4.55;4.15;;;15.80;99.90;;;;;;931479;150;27467;-77
2023/08/30 04:53:26;;;;;;;4.35;3.95;;;15.80;99.90;;;;;;931627;150;27345;-76
2023/08/30 04:55:52;;;;;;;4.37;4.08;;;15.80;99.90;;;;;;932575;150;27327;-76
2023/08/30 04:58:19;;;;;;;4.00;3.65;;;15.80;99.90;;;;;;931729;150;27394;-76
2023/08/30 05:00:46;;;;;;;4.58;4.17;;;15.80;99.90;;;;;;931334;150;27391;-76
2023/08/30 05:03:12;;;;;;;3.80;3.50;;;15.80;99.90;;;;;;930934;150;27332;-77
2023/08/30 05:05:39;;;;;;;4.35;3.95;;;15.90;99.90;;;;;;932216;150;27447;-76
2023/08/30 05:08:06;;;;;;;6.40;3.90;;;15.90;99.90;;;;;;946921;148;27412;-76
2023/08/30 05:10:32;;;;;;;4.85;4.45;;;15.90;99.90;;;;;;947543;148;27457;-76
2023/08/30 05:12:59;;;;;;;4.10;3.80;;;16.00;99.90;;;;;;947780;148;27390;-77
2023/08/30 05:15:25;;;;;;;4.42;4.08;;;16.00;99.90;;;;;;947324;148;27386;-77
2023/08/30 05:17:52;;;;;;;4.17;3.83;;;16.00;99.90;;;;;;949339;148;27389;-76
2023/08/30 05:20:18;;;;;;;3.98;3.60;;;16.00;99.90;;;;;;947002;148;27453;-76
2023/08/30 05:22:45;;;;;;;4.60;4.20;;;16.10;99.90;;;;;;948337;148;27375;-76
2023/08/30 05:25:12;;;;;;;4.08;3.52;;;16.10;99.90;;;;;;948370;148;27362;-77
2023/08/30 05:27:38;;;;;;;5.37;4.00;;;16.20;99.90;;;;;;948808;148;28042;-77
2023/08/30 05:30:05;;;;;;;4.40;4.00;;;16.20;99.90;;;;;;949465;148;27347;-77
2023/08/30 05:32:31;;;;;;;4.28;3.87;;;16.30;99.90;;;;;;948436;148;27468;-77
2023/08/30 05:34:58;;;;;;;4.20;3.80;;;16.30;99.90;;;;;;948457;148;27352;-76
2023/08/30 05:37:25;;;;;;;4.15;3.75;;;16.30;99.90;;;;;;947953;148;27358;-76
2023/08/30 05:39:51;;;;;;;4.30;3.90;;;16.40;99.90;;;;;;947231;148;27332;-76
2023/08/30 05:42:18;;;;;;;4.05;3.75;;;16.50;99.90;;;;;;947126;148;27364;-77
2023/08/30 05:44:44;;;;;;;4.10;3.75;;;16.50;99.90;;;;;;948435;148;27455;-76
2023/08/30 05:47:14;;;;;;;4.50;3.98;;;16.60;99.90;;;;;;948846;148;27348;-76
2023/08/30 05:49:38;;;;;;;4.42;4.03;;;16.60;99.90;;;;;;948266;148;27445;-76
2023/08/30 05:52:04;;;;;;;4.37;3.83;;;16.70;99.90;;;;;;947853;148;27377;-77
2023/08/30 05:54:31;;;;;;;5.37;3.90;;;16.70;99.90;;;;;;948054;148;27783;-76
2023/08/30 05:56:57;;;;;;;4.30;4.00;;;16.80;99.90;;;;;;948540;148;28000;-77
2023/08/30 05:59:24;;;;;;;4.15;3.85;;;16.80;99.90;;;;;;948510;148;27338;-77
2023/08/30 06:01:50;;;;;;;4.10;3.80;;;16.90;99.90;;;;;;948829;148;27503;-76
2023/08/30 06:04:17;;;;;;;5.30;3.90;;;16.90;99.90;;;;;;948281;148;27431;-74
2023/08/30 06:06:44;;;;;;;3.87;3.52;;;17.00;99.90;;;;;;947818;148;27402;-74
2023/08/30 06:09:12;;;;;;;4.17;3.85;;;17.10;99.90;;;;;;943633;149;27312;-74
2023/08/30 06:11:37;;;;;;;5.22;3.50;;;17.10;99.90;;;;;;944210;149;27323;-75
2023/08/30 06:14:03;;;;;;;3.98;3.60;;;17.20;99.90;;;;;;944008;148;27459;-76
2023/08/30 06:16:30;;;;;;;3.50;3.20;;;17.30;99.90;;;;;;941294;151;27373;-74
2023/08/30 06:18:58;;;;;;;4.50;3.45;;;17.30;99.90;;;;;;943354;150;27357;-73
2023/08/30 06:21:23;;;;;;;7.17;3.95;;;17.40;99.90;;;;;;941783;149;27425;-75
2023/08/30 06:23:50;;;;;;;3.80;3.50;;;17.50;99.90;;;;;;943081;149;27458;-76
2023/08/30 06:26:17;;;;;;;3.80;3.50;;;17.60;99.90;;;;;;943445;149;27384;-74
2023/08/30 06:28:44;;;;;;;4.17;3.77;;;17.70;99.90;;;;;;942370;149;27333;-74
2023/08/30 06:31:10;;;;;;;4.05;3.50;;;17.90;99.90;;;;;;943034;149;27426;-73
2023/08/30 06:33:37;;;;;;;4.08;3.60;;;18.10;99.90;;;;;;942971;151;27326;-75
2023/08/30 06:36:03;;;;;;;3.70;3.30;;;18.20;99.90;;;;;;940837;149;27449;-76
2023/08/30 06:38:29;;;;;;;3.90;3.17;;;18.50;99.90;;;;;;926935;152;27492;-73
2023/08/30 06:40:56;;;;;;;8.65;3.62;;;18.80;99.90;;;;;;926318;151;27810;-73
2023/08/30 06:43:22;;;;;;;3.85;3.45;;;19.00;99.90;;;;;;943799;149;27278;-73
2023/08/30 06:45:49;;;;;;;6.08;3.62;;;19.30;99.90;;;;;;942358;149;27450;-76
2023/08/30 06:48:16;;;;;;;3.62;3.33;;;19.50;99.90;;;;;;943658;148;27392;-73
2023/08/30 06:50:42;;;;;;;4.80;3.58;;;19.70;99.90;;;;;;943250;149;27315;-74
2023/08/30 06:53:09;;;;;;;3.62;3.33;;;20.00;99.90;;;;;;947481;148;27434;-74
2023/08/30 06:55:36;;;;;;;4.95;3.80;;;20.20;99.90;;;;;;944094;149;27536;-74
2023/08/30 06:58:02;;;;;;;3.60;3.30;;;20.40;99.90;;;;;;944888;149;27470;-73
2023/08/30 07:00:29;;;;;;;3.67;3.08;;;20.70;99.90;;;;;;929247;151;27360;-73
2023/08/30 07:02:56;;;;;;;3.33;3.10;;;21.00;99.90;;;;;;944729;149;27418;-74
2023/08/30 07:05:22;;;;;;;4.47;3.27;;;21.30;99.90;;;;;;944544;148;27345;-74
2023/08/30 07:07:48;;;;;;;5.05;2.85;;;21.60;99.90;;;;;;938449;148;27499;-74
2023/08/30 07:10:15;;;;;;;3.10;2.60;;;21.90;99.90;;;;;;931764;150;27432;-73
2023/08/30 07:12:42;;;;;;;3.60;3.30;;;22.30;99.90;;;;;;930501;150;27319;-76
2023/08/30 07:15:08;;;;;;;3.55;2.70;;;22.70;99.90;;;;;;930835;150;27447;-74
2023/08/30 07:17:35;;;;;;;2.98;2.72;;;23.20;99.90;;;;;;930806;150;27421;-74
2023/08/30 07:20:03;;;;;;;2.92;2.72;;;23.60;99.90;;;;;;916511;152;27378;-72
2023/08/30 07:22:28;;;;;;;2.72;2.52;;;24.00;98.50;;;;;;914993;152;27431;-71
2023/08/30 07:24:55;;;;;;;2.52;2.33;;;24.50;97.20;;;;;;908389;153;27453;-71
2023/08/30 07:27:21;;;;;;;3.37;2.55;;;24.90;95.80;;;;;;916257;152;27393;-72
2023/08/30 07:29:48;;;;;;;2.77;2.52;;;25.30;94.20;;;;;;907710;153;27582;-72
2023/08/30 07:32:14;;;;;;;3.42;2.60;;;25.70;93.10;;;;;;924908;150;27422;-71
2023/08/30 07:34:41;;;;;;;3.05;2.30;;;26.10;91.90;;;;;;926590;151;27453;-72
2023/08/30 07:37:07;;;;;;;2.00;1.90;;;26.50;90.60;;;;;;926816;151;27374;-72
2023/08/30 07:39:34;;;;;;;2.30;2.10;;;26.80;88.40;;;;;;925155;151;27501;-71
2023/08/30 07:42:01;;;;;;;3.15;2.50;;;27.20;85.60;;;;;;927866;151;27380;-71
2023/08/30 07:44:27;;;;;;;2.00;1.90;;;27.50;83.40;;;;;;927290;152;27385;-71
2023/08/30 07:46:54;;;;;;;2.40;2.25;;;27.80;81.40;;;;;;927330;151;27463;-73
2023/08/30 07:49:20;;;;;;;2.35;2.25;;;28.00;79.60;;;;;;925964;151;27461;-73
2023/08/30 07:51:47;;;;;;;4.95;2.37;;;28.30;77.70;;;;;;925205;151;27367;-72
2023/08/30 07:54:14;;;;;;;2.70;2.50;;;28.60;76.60;;;;;;926656;151;27382;-71
2023/08/30 07:56:40;;;;;;;2.55;2.17;;;28.80;75.30;;;;;;927707;151;27336;-71
2023/08/30 07:59:07;;;;;;;1.98;1.87;;;29.10;74.60;;;;;;926342;151;27446;-74
2023/08/30 08:01:33;;;;;;;3.80;2.60;;;29.30;73.50;;;;;;926496;151;27376;-71
2023/08/30 08:04:00;;;;;;;2.55;2.35;;;29.60;72.50;;;;;;926695;151;27388;-71
2023/08/30 08:06:27;;;;;;;2.25;2.12;;;29.80;71.70;;;;;;925324;151;27929;-72
2023/08/30 08:08:53;;;;;;;2.60;2.40;;;30.10;70.90;;;;;;925767;151;27412;-73
2023/08/30 08:11:20;;;;;;;2.80;2.10;;;30.30;70.10;;;;;;927492;151;27437;-74
2023/08/30 08:13:46;;;;;;;3.47;3.00;;;30.50;69.20;;;;;;928954;151;27457;-72
2023/08/30 08:16:13;;;;;;;4.55;2.95;;;30.70;67.60;;;;;;921812;155;27353;-71
2023/08/30 08:18:40;;;;;;;4.05;2.58;;;31.00;67.10;;;;;;922001;152;27364;-71
2023/08/30 08:21:06;;;;;;;3.00;2.70;;;31.10;66.60;;;;;;920630;152;27370;-74
2023/08/30 08:23:33;;;;;;;3.17;2.98;;;31.30;65.70;;;;;;920567;155;27482;-76
2023/08/30 08:25:59;;;;;;;3.60;2.47;;;31.50;64.50;;;;;;922372;155;27367;-76
2023/08/30 08:28:26;;;;;;;2.80;2.60;;;31.70;63.50;;;;;;919871;153;27333;-76
2023/08/30 08:30:52;;;;;;;4.03;3.40;;;31.70;62.80;;;;;;918978;154;27364;-75
2023/08/30 08:33:20;;;;;;;3.40;3.10;;;31.80;61.90;;;;;;935758;151;27516;-76
2023/08/30 08:35:46;;;;;;;4.72;2.90;;;31.90;61.70;;;;;;910292;154;27809;-76
2023/08/30 08:38:12;;;;;;;2.98;2.72;;;32.00;61.90;;;;;;934955;152;27759;-76
2023/08/30 08:40:42;;;;;;;2.75;2.55;;;32.10;61.80;;;;;;934181;151;27441;-76
2023/08/30 08:43:08;;;;;;;3.50;3.20;;;32.30;61.40;;;;;;936191;151;27374;-74
2023/08/30 08:45:35;;;;;;;3.92;3.62;;;32.40;60.10;;;;;;936187;152;27378;-77
2023/08/30 08:48:01;;;;;;;3.60;3.35;;;32.40;58.90;;;;;;933408;150;27374;-76
2023/08/30 08:50:28;;;;;;;3.40;3.20;;;32.40;58.30;;;;;;934741;151;28024;-76
2023/08/30 08:52:55;;;;;;;3.55;3.10;;;32.30;58.40;;;;;;934728;153;27405;-74
2023/08/30 08:55:21;;;;;;;3.22;3.02;;;32.30;58.60;;;;;;935323;153;27459;-76
2023/08/30 08:57:48;;;;;;;3.37;2.90;;;32.40;58.60;;;;;;935184;153;27304;-76
2023/08/30 09:00:16;;;;;;;3.67;3.37;;;32.50;58.60;;;;;;934303;151;27723;-75
2023/08/30 09:02:41;;;;;;;3.47;3.17;;;32.60;58.20;;;;;;934792;151;27464;-75
2023/08/30 09:05:07;;;;;;;3.15;2.95;;;32.70;58.10;;;;;;935842;150;27367;-77
2023/08/30 09:07:34;;;;;;;3.40;3.20;;;32.80;57.90;;;;;;935244;151;27363;-77
2023/08/30 09:10:01;;;;;;;3.33;3.05;;;33.00;57.40;;;;;;926081;151;26281;-76
2023/08/30 09:12:27;;;;;;;3.40;3.10;;;33.20;56.90;;;;;;925249;151;27371;-76
2023/08/30 09:14:55;;;;;;;3.60;3.30;;;33.30;56.50;;;;;;926732;154;26313;-75
2023/08/30 09:17:20;;;;;;;5.42;3.22;;;33.40;56.00;;;;;;928225;154;26278;-76
2023/08/30 09:19:47;;;;;;;3.00;2.80;;;33.50;55.50;;;;;;927036;151;27441;-77
2023/08/30 09:22:14;;;;;;;2.55;2.35;;;33.50;55.30;;;;;;927415;154;26330;-76
2023/08/30 09:24:40;;;;;;;2.90;2.70;;;33.60;55.30;;;;;;927307;151;26199;-75
2023/08/30 09:27:07;;;;;;;3.22;2.92;;;33.60;54.90;;;;;;927701;154;27420;-76
2023/08/30 09:29:33;;;;;;;3.05;2.85;;;33.70;54.60;;;;;;928517;151;26265;-76
2023/08/30 09:32:00;;;;;;;2.77;2.58;;;33.70;53.90;;;;;;928782;151;27337;-75
2023/08/30 09:34:27;;;;;;;2.77;2.58;;;33.70;53.50;;;;;;927208;151;26266;-74
2023/08/30 09:36:53;;;;;;;2.85;2.65;;;33.60;53.40;;;;;;926438;151;27478;-75
2023/08/30 09:39:20;;;;;;;2.95;2.67;;;33.40;53.20;;;;;;926696;151;27466;-75
2023/08/30 09:41:46;;;;;;;2.75;2.55;;;33.30;52.80;;;;;;928352;154;27295;-75
2023/08/30 09:44:16;;;;;;;2.80;2.60;;;33.10;52.60;;;;;;920895;155;27338;-75
2023/08/30 09:46:45;;;;;;;2.83;2.62;;;32.90;52.00;;;;;;920984;154;27484;-75
2023/08/30 09:49:12;;;;;;;2.42;2.22;;;32.60;52.10;;;;;;921517;153;27502;-75
2023/08/30 09:51:41;;;;;;;2.70;2.50;;;32.40;52.40;;;;;;920752;152;27355;-75
2023/08/30 09:54:05;;;;;;;3.47;2.77;;;32.20;52.90;;;;;;920755;152;27422;-75
2023/08/30 09:56:32;;;;;;;3.08;2.70;;;32.10;53.30;;;;;;921762;155;27415;-75
2023/08/30 09:58:59;;;;;;;2.80;2.60;;;32.00;53.20;;;;;;920956;153;27485;-75
2023/08/30 10:01:25;;;;;;;2.77;2.58;;;31.90;53.30;;;;;;919821;155;27410;-74
2023/08/30 10:03:51;;;;;;;2.37;2.27;;;31.90;53.30;;;;;;919566;155;27345;-75
2023/08/30 10:06:18;;;;;;;2.87;2.60;;;31.70;53.10;;;;;;921472;154;27467;-75
2023/08/30 10:08:45;;;;;;;2.50;2.30;;;31.70;53.00;;;;;;920060;152;27489;-75
2023/08/30 10:11:13;;;;;;;2.83;2.55;;;31.50;52.60;;;;;;912102;154;28347;-75
2023/08/30 10:13:38;;;;;;;2.75;2.55;;;31.40;52.50;;;;;;909998;154;27386;-75
2023/08/30 10:16:04;;;;;;;2.08;1.98;;;31.20;52.60;;;;;;910519;154;27432;-74
2023/08/30 10:18:31;;;;;;;2.87;2.35;;;31.00;52.70;;;;;;913274;152;27335;-75
2023/08/30 10:20:58;;;;;;;2.45;2.27;;;30.90;52.60;;;;;;914242;152;27387;-75
2023/08/30 10:23:24;;;;;;;2.58;2.37;;;30.80;52.20;;;;;;918641;152;27394;-75
2023/08/30 10:25:52;;;;;;;2.10;2.00;;;30.70;52.20;;;;;;914151;152;26264;-75
2023/08/30 10:28:17;;;;;;;2.25;2.05;;;30.50;52.00;;;;;;914603;152;27421;-75
2023/08/30 10:30:44;;;;;;;2.87;2.30;;;30.40;52.10;;;;;;914771;152;27391;-75
2023/08/30 10:33:14;;;;;;;2.00;1.90;;;30.20;52.10;;;;;;915926;152;27385;-75
2023/08/30 10:35:52;;;;;;;2.00;1.90;;;30.10;52.00;;;;;;913684;152;27458;-75
2023/08/30 10:38:27;;;;;;;1.90;1.80;;;30.10;52.00;;;;;;915111;153;27537;-75
2023/08/30 10:40:54;;;;;;;2.95;1.80;;;29.90;52.10;;;;;;910714;154;27508;-76
2023/08/30 10:43:32;;;;;;;2.22;1.70;;;29.80;52.50;;;;;;910094;154;27481;-76
2023/08/30 10:46:02;;;;;;;2.05;1.85;;;29.70;52.40;;;;;;909450;154;27379;-76
2023/08/30 10:48:34;;;;;;;2.92;1.85;;;29.70;52.30;;;;;;908403;154;27440;-76
2023/08/30 10:51:04;;;;;;;1.80;1.70;;;29.60;52.30;;;;;;908942;154;27465;-76
2023/08/30 10:53:30;;;;;;;2.02;1.80;;;29.60;52.20;;;;;;909216;154;27400;-76
2023/08/30 10:56:12;;;;;;;1.80;1.70;;;29.50;52.30;;;;;;909629;154;27458;-76
2023/08/30 10:58:42;;;;;;;1.65;1.55;;;29.40;52.40;;;;;;910122;154;27421;-73
2023/08/30 11:01:08;;;;;;;1.77;1.67;;;29.30;52.60;;;;;;910152;154;27508;-76
2023/08/30 11:03:34;;;;;;;2.00;1.80;;;29.20;52.70;;;;;;909914;154;27383;-74
2023/08/30 11:06:01;;;;;;;2.30;1.45;;;29.20;53.00;;;;;;909771;154;27443;-76
2023/08/30 11:08:27;;;;;;;1.37;1.27;;;29.20;52.80;;;;;;910431;154;27399;-74
2023/08/30 11:11:00;;;;;;;2.33;1.40;;;29.20;52.60;;;;;;911819;152;27472;-76
2023/08/30 11:13:27;;;;;;;2.02;1.52;;;29.30;52.30;;;;;;913575;152;27441;-76
2023/08/30 11:15:53;;;;;;;1.62;1.50;;;29.20;52.00;;;;;;908543;153;27361;-76
2023/08/30 11:18:20;;;;;;;1.62;1.52;;;29.20;51.90;;;;;;915578;152;27363;-76
2023/08/30 11:20:46;;;;;;;1.45;1.37;;;29.20;51.60;;;;;;914054;153;27378;-76
2023/08/30 11:23:13;;;;;;;1.30;1.20;;;29.10;51.60;;;;;;932276;150;27759;-76
2023/08/30 11:25:39;;;;;;;2.17;1.60;;;29.00;51.70;;;;;;929850;150;27348;-76
2023/08/30 11:28:06;;;;;;;4.05;1.57;;;29.00;51.90;;;;;;932593;150;27694;-75
2023/08/30 11:30:33;;;;;;;1.62;1.40;;;28.90;51.80;;;;;;932143;150;27368;-75
2023/08/30 11:32:59;;;;;;;2.33;1.62;;;28.90;52.20;;;;;;931742;150;27367;-76
2023/08/30 11:35:26;;;;;;;1.82;1.72;;;28.80;52.00;;;;;;931629;150;27449;-77
2023/08/30 11:37:52;;;;;;;1.57;1.47;;;28.80;52.20;;;;;;931335;150;27356;-75
2023/08/30 11:40:19;;;;;;;1.60;1.50;;;28.80;52.10;;;;;;930931;150;27370;-75
2023/08/30 11:42:46;;;;;;;3.02;1.40;;;28.90;52.20;;;;;;930523;150;27392;-76
2023/08/30 11:45:12;;;;;;;1.90;1.77;;;28.90;52.20;;;;;;931025;150;27371;-75
2023/08/30 11:47:39;;;;;;;1.50;1.40;;;28.90;52.00;;;;;;931085;150;27332;-76
2023/08/30 11:50:06;;;;;;;1.60;1.50;;;28.90;51.70;;;;;;930886;150;27337;-74
2023/08/30 11:52:32;;;;;;;1.72;1.62;;;28.90;51.60;;;;;;930978;150;27442;-74
2023/08/30 11:54:59;;;;;;;1.60;1.50;;;28.80;51.40;;;;;;931962;150;27406;-74
2023/08/30 11:57:27;;;;;;;1.30;1.20;;;28.70;51.20;;;;;;930607;150;27356;-74
2023/08/30 11:59:52;;;;;;;2.52;1.60;;;28.60;51.40;;;;;;930924;150;27384;-73
2023/08/30 12:02:19;;;;;;;1.65;1.55;;;28.60;51.60;;;;;;928818;150;27377;-74
2023/08/30 12:04:48;;;;;;;1.37;1.27;;;28.50;51.40;;;;;;931019;150;27364;-74
2023/08/30 12:07:23;;;;;;;1.60;1.50;;;28.50;51.10;;;;;;930393;150;27444;-74
2023/08/30 12:09:50;;;;;;;1.10;1.10;;;28.50;51.20;;;;;;931699;150;27574;-74
2023/08/30 12:12:17;;;;;;;2.80;1.40;;;28.40;51.00;;;;;;940818;148;27378;-74
2023/08/30 12:14:43;;;;;;;1.35;1.25;;;28.40;50.70;;;;;;943525;149;27377;-74
2023/08/30 12:17:12;;;;;;;1.42;1.32;;;28.30;50.60;;;;;;943096;149;27350;-74
2023/08/30 12:19:36;;;;;;;1.40;1.30;;;28.20;50.70;;;;;;942089;149;27282;-74
2023/08/30 12:22:07;;;;;;;1.15;1.15;;;28.20;50.90;;;;;;945142;149;27350;-73
2023/08/30 12:24:42;;;;;;;1.42;1.32;;;28.20;50.70;;;;;;943716;149;27333;-74
2023/08/30 12:27:09;;;;;;;2.35;1.45;;;28.20;50.70;;;;;;943631;149;28067;-74
2023/08/30 12:29:35;;;;;;;1.50;1.40;;;28.10;50.80;;;;;;942552;148;27450;-74
2023/08/30 12:32:02;;;;;;;1.30;1.30;;;28.10;50.70;;;;;;944827;148;27373;-74
2023/08/30 12:34:28;;;;;;;1.60;1.50;;;28.10;50.40;;;;;;944445;149;27421;-73
2023/08/30 12:36:55;;;;;;;2.50;1.22;;;28.10;50.30;;;;;;943698;149;27388;-74
2023/08/30 12:39:21;;;;;;;1.47;1.37;;;28.00;50.40;;;;;;944125;149;27397;-74
2023/08/30 12:41:48;;;;;;;1.45;1.35;;;28.00;50.60;;;;;;942834;149;27357;-74
2023/08/30 12:44:15;;;;;;;2.80;1.55;;;28.00;50.40;;;;;;944430;149;27345;-74